Time;durP1;ratioP1;P1;durP2;ratioP2;P2;SDS_P1;SDS_P2;PMS_P1;PMS_P2;Temp;Humidity;BMP_temperature;BMP_pressure;BME280_temperature;BME280_humidity;BME280_pressure;Samples;Min_cycle;Max_cycle;Signal;HPM_P1;HPM_P2
2021/03/29 00:01:44;;;;;;;;;;;7.60;99.90;;;;;;5070296;28;19913;-72
2021/03/29 00:04:10;;;;;;;;;;;7.60;99.90;;;;;;5052183;28;19918;-71
2021/03/29 00:06:36;;;;;;;;;;;7.60;99.90;;;;;;5070311;28;19948;-70
2021/03/29 00:09:03;;;;;;;;;;;7.50;99.90;;;;;;5069662;28;19948;-71
2021/03/29 00:11:29;;;;;;;;;;;7.60;99.90;;;;;;5069576;28;19908;-71
2021/03/29 00:13:56;;;;;;;;;;;7.50;99.90;;;;;;5070388;28;20005;-70
2021/03/29 00:16:22;;;;;;;;;;;7.50;99.90;;;;;;5069589;28;19935;-71
2021/03/29 00:18:48;;;;;;;;;;;7.40;99.90;;;;;;5070301;28;19915;-70
2021/03/29 00:21:13;;;;;;;;;;;7.40;99.90;;;;;;5069329;28;20011;-71
2021/03/29 00:23:40;;;;;;;;;;;7.30;99.90;;;;;;5070426;28;19942;-71
2021/03/29 00:26:06;;;;;;;;;;;7.20;99.90;;;;;;5069506;28;19912;-70
2021/03/29 00:28:32;;;;;;;;;;;7.20;99.90;;;;;;5069842;28;19919;-71
2021/03/29 00:30:57;;;;;;;;;;;7.20;99.90;;;;;;5068461;28;19916;-70
2021/03/29 00:33:24;;;;;;;;;;;7.10;99.90;;;;;;5051807;28;20341;-70
2021/03/29 00:35:50;;;;;;;;;;;7.10;99.90;;;;;;5069138;28;20376;-71
2021/03/29 00:38:16;;;;;;;;;;;7.10;99.90;;;;;;5069536;28;19919;-71
2021/03/29 00:40:47;;;;;;;;;;;7.10;99.90;;;;;;5068541;28;20257;-71
2021/03/29 00:43:17;;;;;;;;;;;7.10;99.90;;;;;;5070273;28;20019;-71
2021/03/29 00:45:43;;;;;;;;;;;7.10;99.90;;;;;;5069379;28;20023;-69
2021/03/29 00:48:09;;;;;;;;;;;7.20;99.90;;;;;;5069488;28;20011;-70
2021/03/29 00:50:44;;;;;;;;;;;7.20;99.90;;;;;;5068325;28;19920;-70
2021/03/29 00:53:11;;;;;;;;;;;7.30;99.90;;;;;;5069349;28;19919;-70
2021/03/29 00:55:38;;;;;;;;;;;7.30;99.90;;;;;;5069054;28;20301;-71
2021/03/29 00:58:04;;;;;;;;;;;7.40;99.90;;;;;;5069223;28;19908;-71
2021/03/29 01:00:34;;;;;;;;;;;7.30;99.90;;;;;;5068059;28;19936;-71
2021/03/29 01:03:00;;;;;;;;;;;7.30;99.90;;;;;;5048282;28;19973;-71
2021/03/29 01:05:26;;;;;;;;;;;7.30;99.90;;;;;;5048926;28;20052;-70
2021/03/29 01:07:53;;;;;;;;;;;7.20;99.90;;;;;;5048705;28;20378;-71
2021/03/29 01:10:19;;;;;;;;;;;7.20;99.90;;;;;;5030009;28;19909;-71
2021/03/29 01:12:45;;;;;;;;;;;7.20;99.90;;;;;;5049378;28;19912;-71
2021/03/29 01:15:13;;;;;;;;;;;7.30;99.90;;;;;;5048645;28;19923;-71
2021/03/29 01:17:40;;;;;;;;;;;7.30;99.90;;;;;;5048617;28;19913;-70
2021/03/29 01:20:08;;;;;;;;;;;7.30;99.90;;;;;;5047432;28;19908;-71
2021/03/29 01:22:35;;;;;;;;;;;7.30;99.90;;;;;;5048575;28;19938;-71
2021/03/29 01:25:04;;;;;;;;;;;7.30;99.90;;;;;;5048345;28;19916;-70
2021/03/29 01:27:32;;;;;;;;;;;7.20;99.90;;;;;;5048273;28;19913;-71
2021/03/29 01:29:58;;;;;;;;;;;7.20;99.90;;;;;;5048001;28;19944;-71
2021/03/29 01:32:24;;;;;;;;;;;7.20;99.90;;;;;;5048014;28;20352;-71
2021/03/29 01:34:50;;;;;;;;;;;7.20;99.90;;;;;;5048406;28;19956;-71
2021/03/29 01:37:15;;;;;;;;;;;7.20;99.90;;;;;;5048246;28;19932;-71
2021/03/29 01:39:42;;;;;;;;;;;7.20;99.90;;;;;;5048324;28;19935;-71
2021/03/29 01:42:09;;;;;;;;;;;7.20;99.90;;;;;;5048164;28;20246;-71
2021/03/29 01:44:35;;;;;;;;;;;7.20;99.90;;;;;;5048713;28;19927;-70
2021/03/29 01:47:01;;;;;;;;;;;7.20;99.90;;;;;;5051332;28;20000;-70
2021/03/29 01:49:27;;;;;;;;;;;7.20;99.90;;;;;;5067088;28;19923;-70
2021/03/29 01:51:53;;;;;;;;;;;7.30;99.90;;;;;;5068418;28;19952;-70
2021/03/29 01:54:19;;;;;;;;;;;7.40;99.90;;;;;;5068381;28;19940;-70
2021/03/29 01:56:45;;;;;;;;;;;7.40;99.90;;;;;;5068244;28;19986;-70
2021/03/29 01:59:11;;;;;;;;;;;7.30;99.90;;;;;;5068107;28;20387;-69
2021/03/29 02:01:36;;;;;;;;;;;7.30;99.90;;;;;;5067465;28;19909;-71
2021/03/29 02:04:03;;;;;;;;;;;7.20;99.90;;;;;;5068182;28;19969;-69
2021/03/29 02:06:29;;;;;;;;;;;7.10;99.90;;;;;;5066953;28;20011;-70
2021/03/29 02:08:55;;;;;;;;;;;7.10;99.90;;;;;;5068088;28;20511;-68
2021/03/29 02:11:21;;;;;;;;;;;7.00;99.90;;;;;;5067800;28;20238;-70
2021/03/29 02:13:48;;;;;;;;;;;7.00;99.90;;;;;;5068040;28;19920;-70
2021/03/29 02:16:15;;;;;;;;;;;7.00;99.90;;;;;;5066933;28;19923;-70
2021/03/29 02:18:55;;;;;;;;;;;6.90;99.90;;;;;;5049991;28;20014;-70
2021/03/29 02:21:22;;;;;;;;;;;6.90;99.90;;;;;;5067391;28;19915;-70
2021/03/29 02:23:49;;;;;;;;;;;6.80;99.90;;;;;;5068209;28;19909;-69
2021/03/29 02:26:18;;;;;;;;;;;6.80;99.90;;;;;;5067267;28;20415;-70
2021/03/29 02:28:43;;;;;;;;;;;6.80;99.90;;;;;;5068297;28;19915;-70
2021/03/29 02:31:09;;;;;;;;;;;6.70;99.90;;;;;;5066188;28;20240;-70
2021/03/29 02:33:35;;;;;;;;;;;6.60;99.90;;;;;;5067767;28;19919;-71
2021/03/29 02:36:00;;;;;;;;;;;6.50;99.90;;;;;;5048596;28;19912;-71
2021/03/29 02:38:26;;;;;;;;;;;6.40;99.90;;;;;;5071130;28;20249;-71
2021/03/29 02:40:52;;;;;;;;;;;6.40;99.90;;;;;;5070261;28;20384;-70
2021/03/29 02:43:19;;;;;;;;;;;6.40;99.90;;;;;;5072043;28;19915;-70
2021/03/29 02:46:11;;;;;;;;;;;6.30;99.90;;;;;;5070061;28;20003;-70
2021/03/29 02:48:38;;;;;;;;;;;6.20;99.90;;;;;;5068567;28;19909;-70
2021/03/29 02:51:13;;;;;;;;;;;6.20;99.90;;;;;;5069982;28;19908;-70
2021/03/29 02:53:43;;;;;;;;;;;6.20;99.90;;;;;;5071570;28;19963;-71
2021/03/29 02:56:10;;;;;;;;;;;6.20;99.90;;;;;;5070778;28;20387;-70
2021/03/29 02:58:39;;;;;;;;;;;6.20;99.90;;;;;;5071805;28;19921;-71
2021/03/29 03:01:07;;;;;;;;;;;6.20;99.90;;;;;;5069589;28;19912;-70
2021/03/29 03:03:33;;;;;;;;;;;6.20;99.90;;;;;;5071641;28;19909;-70
2021/03/29 03:05:59;;;;;;;;;;;6.10;99.90;;;;;;5070945;28;20830;-70
2021/03/29 03:08:24;;;;;;;;;;;6.00;99.90;;;;;;5071403;28;19913;-71
2021/03/29 03:10:50;;;;;;;;;;;5.90;99.90;;;;;;5070423;28;20365;-71
2021/03/29 03:13:16;;;;;;;;;;;5.80;99.90;;;;;;5071675;28;20390;-71
2021/03/29 03:15:41;;;;;;;;;;;5.80;99.90;;;;;;5070774;28;19920;-70
2021/03/29 03:18:08;;;;;;;;;;;5.70;99.90;;;;;;5071726;28;19966;-70
2021/03/29 03:20:35;;;;;;;;;;;5.70;99.90;;;;;;5070521;28;19913;-71
2021/03/29 03:23:07;;;;;;;;;;;5.60;99.90;;;;;;5071754;28;20328;-70
2021/03/29 03:25:37;;;;;;;;;;;5.60;99.90;;;;;;5069038;28;19955;-71
2021/03/29 03:28:04;;;;;;;;;;;5.60;99.90;;;;;;5063178;28;20331;-72
2021/03/29 03:30:30;;;;;;;;;;;5.60;99.90;;;;;;5069436;28;19921;-71
2021/03/29 03:32:56;;;;;;;;;;;5.50;99.90;;;;;;5070743;28;19948;-71
2021/03/29 03:35:23;;;;;;;;;;;5.50;99.90;;;;;;5070200;28;20300;-70
2021/03/29 03:37:51;;;;;;;;;;;5.50;99.90;;;;;;5070906;28;19908;-72
2021/03/29 03:40:19;;;;;;;;;;;5.60;99.90;;;;;;5069875;28;19919;-71
2021/03/29 03:42:44;;;;;;;;;;;5.50;99.90;;;;;;5070661;28;19982;-72
2021/03/29 03:45:11;;;;;;;;;;;5.50;99.90;;;;;;5070596;28;19956;-70
2021/03/29 03:47:38;;;;;;;;;;;5.50;99.90;;;;;;5070376;28;20004;-70
2021/03/29 03:50:05;;;;;;;;;;;5.40;99.90;;;;;;5068950;28;20049;-69
2021/03/29 03:52:31;;;;;;;;;;;5.40;99.90;;;;;;5070386;28;20338;-70
2021/03/29 03:54:57;;;;;;;;;;;5.30;99.90;;;;;;5070608;28;19920;-70
2021/03/29 03:57:22;;;;;;;;;;;5.40;99.90;;;;;;5069796;28;19934;-71
2021/03/29 03:59:48;;;;;;;;;;;5.30;99.90;;;;;;5069650;28;19970;-70
2021/03/29 04:02:14;;;;;;;;;;;5.20;99.90;;;;;;5069640;28;19955;-70
2021/03/29 04:04:39;;;;;;;;;;;5.30;99.90;;;;;;5069561;28;19913;-69
2021/03/29 04:07:05;;;;;;;;;;;5.20;99.90;;;;;;5070074;28;20065;-70
2021/03/29 04:09:55;;;;;;;;;;;5.20;99.90;;;;;;5069711;28;19967;-70
2021/03/29 04:12:18;;;;;;;;;;;5.20;99.90;;;;;;5068948;28;19908;-70
2021/03/29 04:14:44;;;;;;;;;;;5.10;99.90;;;;;;5070052;28;19919;-70
2021/03/29 04:17:09;;;;;;;;;;;5.10;99.90;;;;;;5069438;28;20292;-69
2021/03/29 04:19:35;;;;;;;;;;;5.10;99.90;;;;;;5068582;28;19948;-69
2021/03/29 04:22:00;;;;;;;;;;;5.10;99.90;;;;;;5070026;28;19909;-70
2021/03/29 04:24:26;;;;;;;;;;;5.10;99.90;;;;;;5069536;28;19924;-70
2021/03/29 04:26:51;;;;;;;;;;;5.00;99.90;;;;;;5069351;28;19916;-70
2021/03/29 04:29:17;;;;;;;;;;;5.10;99.90;;;;;;5069157;28;19908;-70
2021/03/29 04:31:42;;;;;;;;;;;5.00;99.90;;;;;;5068975;28;20406;-70
2021/03/29 04:34:08;;;;;;;;;;;5.10;99.90;;;;;;5073530;28;19923;-69
2021/03/29 04:36:34;;;;;;;;;;;5.00;99.90;;;;;;5087771;28;19919;-69
2021/03/29 04:39:00;;;;;;;;;;;5.10;99.90;;;;;;5077910;28;19912;-70
2021/03/29 04:41:25;;;;;;;;;;;5.10;99.90;;;;;;5084465;28;19935;-71
2021/03/29 04:43:51;;;;;;;;;;;5.10;99.90;;;;;;5086807;28;19969;-71
2021/03/29 04:46:16;;;;;;;;;;;5.00;99.90;;;;;;5088513;28;20310;-71
2021/03/29 04:48:42;;;;;;;;;;;4.90;99.90;;;;;;5083095;28;19927;-71
2021/03/29 04:51:07;;;;;;;;;;;4.90;99.90;;;;;;5088444;28;19928;-72
2021/03/29 04:53:33;;;;;;;;;;;4.90;99.90;;;;;;5089619;28;19965;-70
2021/03/29 04:55:58;;;;;;;;;;;4.90;99.90;;;;;;5082888;28;19920;-69
2021/03/29 04:58:24;;;;;;;;;;;5.00;99.90;;;;;;5089059;28;19920;-70
2021/03/29 05:00:49;;;;;;;;;;;5.00;99.90;;;;;;5086808;28;19994;-70
2021/03/29 05:03:15;;;;;;;;;;;4.90;99.90;;;;;;5088591;28;20012;-69
2021/03/29 05:05:40;;;;;;;;;;;4.90;99.90;;;;;;5088108;28;19916;-71
2021/03/29 05:08:05;;;;;;;;;;;4.90;99.90;;;;;;5088442;28;19919;-70
2021/03/29 05:10:31;;;;;;;;;;;4.90;99.90;;;;;;5087672;28;19959;-71
2021/03/29 05:12:57;;;;;;;;;;;4.90;99.90;;;;;;5078683;28;20481;-70
2021/03/29 05:15:24;;;;;;;;;;;4.90;99.90;;;;;;5090488;28;19916;-71
2021/03/29 05:17:49;;;;;;;;;;;5.00;99.90;;;;;;5070656;28;20545;-71
2021/03/29 05:20:15;;;;;;;;;;;5.10;99.90;;;;;;5086904;28;19924;-71
2021/03/29 05:22:40;;;;;;;;;;;5.30;99.90;;;;;;5084187;28;19969;-71
2021/03/29 05:25:06;;;;;;;;;;;5.60;99.90;;;;;;5072536;28;19912;-71
2021/03/29 05:27:31;;;;;;;;;;;5.80;99.90;;;;;;5067089;28;20015;-71
2021/03/29 05:29:57;;;;;;;;;;;6.20;99.90;;;;;;5052800;28;19913;-70
2021/03/29 05:32:23;;;;;;;;;;;6.70;99.90;;;;;;5046318;28;19989;-69
2021/03/29 05:34:50;;;;;;;;;;;7.20;99.90;;;;;;5046417;28;19920;-70
2021/03/29 05:37:16;;;;;;;;;;;7.70;99.90;;;;;;5046504;28;19909;-71
2021/03/29 05:39:44;;;;;;;;;;;8.10;99.90;;;;;;5055709;28;20211;-69
2021/03/29 05:42:09;;;;;;;;;;;8.50;99.90;;;;;;5066282;28;19912;-71
2021/03/29 05:44:36;;;;;;;;;;;8.90;99.90;;;;;;5067309;28;19923;-70
2021/03/29 05:47:02;;;;;;;;;;;9.40;99.90;;;;;;5065263;28;20397;-71
2021/03/29 05:49:27;;;;;;;;;;;9.60;99.90;;;;;;5082182;28;19916;-73
2021/03/29 05:51:53;;;;;;;;;;;9.90;99.90;;;;;;5086352;28;19919;-72
2021/03/29 05:54:18;;;;;;;;;;;10.40;99.90;;;;;;5081371;28;19927;-71
2021/03/29 05:56:44;;;;;;;;;;;11.00;99.90;;;;;;5067506;28;19912;-72
2021/03/29 06:01:46;;;;;;;;;;;12.80;99.90;;;;;;5079987;28;19916;-69
2021/03/29 06:04:12;;;;;;;;;;;13.60;97.00;;;;;;5086974;28;19919;-70
2021/03/29 06:06:38;;;;;;;;;;;14.50;93.90;;;;;;5082407;28;19922;-71
2021/03/29 06:09:04;;;;;;;;;;;15.30;91.10;;;;;;5086302;28;19912;-69
2021/03/29 06:11:34;;;;;;;;;;;16.10;85.00;;;;;;5078018;28;19923;-69
2021/03/29 06:14:10;;;;;;;;;;;16.80;79.30;;;;;;5075292;28;19917;-71
2021/03/29 06:16:54;;;;;;;;;;;17.40;99.90;;;;;;5085368;28;19916;-71
2021/03/29 06:19:38;;;;;;;;;;;17.80;99.90;;;;;;5085207;28;19923;-70
2021/03/29 06:22:07;;;;;;;;;;;18.20;99.90;;;;;;5077677;28;19920;-70
2021/03/29 06:24:50;;;;;;;;;;;18.60;99.90;;;;;;5076217;28;20478;-71
2021/03/29 06:27:15;;;;;;;;;;;18.80;99.90;;;;;;5070863;28;19927;-71
2021/03/29 06:29:41;;;;;;;;;;;19.40;99.90;;;;;;5072924;28;20546;-70
2021/03/29 06:32:06;;;;;;;;;;;20.30;99.90;;;;;;5070618;28;19989;-70
2021/03/29 06:34:33;;;;;;;;;;;20.40;99.90;;;;;;5068576;28;19927;-69
2021/03/29 06:37:05;;;;;;;;;;;20.40;99.90;;;;;;5073674;28;20352;-71
2021/03/29 06:39:34;;;;;;;;;;;20.30;99.90;;;;;;5072377;28;19912;-71
2021/03/29 06:41:59;;;;;;;;;;;20.20;99.90;;;;;;5072674;28;19943;-71
2021/03/29 06:44:26;;;;;;;;;;;19.90;99.90;;;;;;5074432;28;19916;-71
2021/03/29 06:47:11;;;;;;;;;;;20.40;99.90;;;;;;5068006;28;19913;-72
2021/03/29 06:49:43;;;;;;;;;;;21.50;99.90;;;;;;5064915;28;19936;-70
2021/03/29 06:52:25;;;;;;;;;;;22.90;99.90;;;;;;5072132;28;20461;-71
2021/03/29 06:54:51;;;;;;;;;;;23.80;99.90;;;;;;5069777;28;19916;-69
2021/03/29 06:57:26;;;;;;;;;;;23.40;96.60;;;;;;5072983;28;19927;-70
2021/03/29 06:59:52;;;;;;;;;;;21.90;89.00;;;;;;5071866;28;20340;-70
2021/03/29 07:02:34;;;;;;;;;;;20.80;78.20;;;;;;5071650;28;19916;-71
2021/03/29 07:05:00;;;;;;;;;;;20.40;72.70;;;;;;5067041;28;19920;-71
2021/03/29 07:07:26;;;;;;;;;;;19.90;66.30;;;;;;5074034;28;19924;-71
2021/03/29 07:09:51;;;;;;;;;;;18.90;58.60;;;;;;5071787;28;20299;-71
2021/03/29 07:12:18;;;;;;;;;;;18.50;55.30;;;;;;5074782;28;20339;-72
2021/03/29 07:14:43;;;;;;;;;;;18.00;52.10;;;;;;5075014;28;20785;-70
2021/03/29 07:17:09;;;;;;;;;;;17.50;49.00;;;;;;5070228;28;19927;-71
2021/03/29 07:19:35;;;;;;;;;;;17.10;48.00;;;;;;5071142;28;20444;-70
2021/03/29 07:22:01;;;;;;;;;;;16.90;46.10;;;;;;5071173;28;19981;-71
2021/03/29 07:24:27;;;;;;;;;;;16.40;43.10;;;;;;5072179;28;19919;-71
2021/03/29 07:26:53;;;;;;;;;;;15.90;40.40;;;;;;5075128;28;19912;-71
2021/03/29 07:29:26;;;;;;;;;;;15.60;42.10;;;;;;5073720;28;19920;-70
2021/03/29 07:31:56;;;;;;;;;;;15.80;40.50;;;;;;5073816;28;19923;-71
2021/03/29 07:34:41;;;;;;;;;;;15.70;40.80;;;;;;5075375;28;19923;-71
2021/03/29 07:37:25;;;;;;;;;;;16.10;42.70;;;;;;5074549;28;19939;-70
2021/03/29 07:39:50;;;;;;;;;;;16.80;46.20;;;;;;5074381;28;19919;-71
2021/03/29 07:42:22;;;;;;;;;;;19.80;54.60;;;;;;5074897;28;20436;-72
2021/03/29 07:44:50;;;;;;;;;;;23.70;66.70;;;;;;5076066;28;19923;-71
2021/03/29 07:47:36;;;;;;;;;;;28.20;80.90;;;;;;5071818;28;19916;-71
2021/03/29 07:50:02;;;;;;;;;;;30.00;86.10;;;;;;5071170;28;19912;-71
2021/03/29 07:52:35;;;;;;;;;;;29.90;71.60;;;;;;5071604;28;19912;-72
2021/03/29 07:55:03;;;;;;;;;;;31.60;68.50;;;;;;5073779;28;19916;-70
2021/03/29 07:58:00;;;;;;;;;;;33.70;66.50;;;;;;5073334;28;19916;-70
2021/03/29 08:00:26;;;;;;;;;;;35.10;62.60;;;;;;5074013;28;19917;-71
2021/03/29 08:03:01;;;;;;;;;;;36.80;58.70;;;;;;5075824;28;19987;-71
2021/03/29 08:05:40;;;;;;;;;;;37.50;52.80;;;;;;5070356;28;19956;-71
2021/03/29 08:08:28;;;;;;;;;;;37.70;43.20;;;;;;5074148;28;20300;-72
2021/03/29 08:11:02;;;;;;;;;;;38.50;35.60;;;;;;5071979;28;20005;-71
2021/03/29 08:13:34;;;;;;;;;;;38.50;38.40;;;;;;5074055;28;19973;-71
2021/03/29 08:16:06;;;;;;;;;;;37.80;17.80;;;;;;5073712;28;19931;-71
2021/03/29 08:18:51;;;;;;;;;;;37.10;9.30;;;;;;5073783;28;20759;-71
2021/03/29 08:21:35;;;;;;;;;;;36.00;1.00;;;;;;5073683;28;20305;-72
2021/03/29 08:24:00;;;;;;;;;;;36.00;1.00;;;;;;5070075;28;19978;-71
2021/03/29 08:26:36;;;;;;;;;;;34.50;1.00;;;;;;5069250;28;19908;-73
2021/03/29 08:29:10;;;;;;;;;;;35.80;1.00;;;;;;5072553;28;19912;-72
2021/03/29 08:32:02;;;;;;;;;;;37.90;1.00;;;;;;5072884;28;19962;-72
2021/03/29 08:34:28;;;;;;;;;;;39.60;1.00;;;;;;5072031;28;19920;-72
2021/03/29 08:36:54;;;;;;;;;;;38.60;1.00;;;;;;5075038;28;20007;-71
2021/03/29 08:39:20;;;;;;;;;;;39.80;1.00;;;;;;5076138;28;20345;-72
2021/03/29 08:41:49;;;;;;;;;;;41.10;1.00;;;;;;5074013;28;20262;-72
2021/03/29 08:44:15;;;;;;;;;;;38.90;1.00;;;;;;5076704;28;19996;-71
2021/03/29 08:46:40;;;;;;;;;;;39.40;1.00;;;;;;5073261;28;20008;-70
2021/03/29 08:49:09;;;;;;;;;;;37.80;1.00;;;;;;5072253;28;19916;-72
2021/03/29 08:51:34;;;;;;;;;;;35.70;1.00;;;;;;5071550;28;19967;-71
2021/03/29 08:54:07;;;;;;;;;;;35.60;1.00;;;;;;5072186;28;19955;-71
2021/03/29 08:56:54;;;;;;;;;;;36.80;1.00;;;;;;5088550;28;19998;-71
2021/03/29 08:59:26;;;;;;;;;;;38.90;1.00;;;;;;5087152;28;19931;-72
2021/03/29 09:01:52;;;;;;;;;;;41.40;1.00;;;;;;5073786;28;19943;-71
2021/03/29 09:04:17;;;;;;;;;;;42.80;1.00;;;;;;5088818;28;19913;-70
2021/03/29 09:06:43;;;;;;;;;;;44.00;1.00;;;;;;5070556;28;19954;-70
2021/03/29 09:09:16;;;;;;;;;;;44.50;1.00;;;;;;5088900;28;19962;-70
2021/03/29 09:11:42;;;;;;;;;;;45.20;1.00;;;;;;5088796;28;19919;-73
2021/03/29 09:14:08;;;;;;;;;;;46.30;1.00;;;;;;5089866;28;20308;-72
2021/03/29 09:16:34;;;;;;;;;;;45.70;1.00;;;;;;5077391;28;19912;-71
2021/03/29 09:19:16;;;;;;;;;;;45.50;1.00;;;;;;5088010;28;19912;-70
2021/03/29 09:21:42;;;;;;;;;;;45.90;1.00;;;;;;5078317;28;19935;-72
2021/03/29 09:24:18;;;;;;;;;;;46.40;1.00;;;;;;5069469;28;20358;-71
2021/03/29 09:26:43;;;;;;;;;;;45.40;1.00;;;;;;5067742;28;20003;-71
2021/03/29 09:29:22;;;;;;;;;;;45.60;1.00;;;;;;5083911;28;20035;-71
2021/03/29 09:31:48;;;;;;;;;;;43.70;1.00;;;;;;5081952;28;20003;-70
2021/03/29 09:34:14;;;;;;;;;;;44.00;1.00;;;;;;5077477;28;20425;-71
2021/03/29 09:36:39;;;;;;;;;;;44.60;1.00;;;;;;5077265;28;19908;-71
2021/03/29 09:39:12;;;;;;;;;;;44.60;1.00;;;;;;5069287;28;19999;-73
2021/03/29 09:41:47;;;;;;;;;;;42.80;1.00;;;;;;5084711;28;19916;-71
2021/03/29 09:44:13;;;;;;;;;;;42.50;1.00;;;;;;5077318;28;19959;-72
2021/03/29 09:46:38;;;;;;;;;;;42.30;1.00;;;;;;5086720;28;20536;-71
2021/03/29 09:49:08;;;;;;;;;;;42.60;1.00;;;;;;5088608;28;19912;-72
2021/03/29 09:51:34;;;;;;;;;;;44.30;1.00;;;;;;5086536;28;19912;-72
2021/03/29 09:53:59;;;;;;;;;;;44.10;1.00;;;;;;5089008;28;20273;-72
2021/03/29 09:56:26;;;;;;;;;;;42.10;1.00;;;;;;5088126;28;19908;-73
2021/03/29 09:58:51;;;;;;;;;;;40.40;1.00;;;;;;5088269;28;20424;-70
2021/03/29 10:01:18;;;;;;;;;;;40.70;1.00;;;;;;5084908;28;20006;-71
2021/03/29 10:04:10;;;;;;;;;;;41.50;1.00;;;;;;5089113;28;20391;-73
2021/03/29 10:06:35;;;;;;;;;;;41.90;1.00;;;;;;5080589;28;19920;-71
2021/03/29 10:09:06;;;;;;;;;;;42.50;1.00;;;;;;5078821;28;20365;-72
2021/03/29 10:11:48;;;;;;;;;;;42.80;1.00;;;;;;5082177;28;19912;-70
2021/03/29 10:14:16;;;;;;;;;;;42.60;1.00;;;;;;5060110;28;19908;-70
2021/03/29 10:16:51;;;;;;;;;;;42.10;1.00;;;;;;5086773;28;19958;-72
2021/03/29 10:19:19;;;;;;;;;;;42.10;1.00;;;;;;5087011;28;19909;-71
2021/03/29 10:22:01;;;;;;;;;;;41.90;1.00;;;;;;5074705;28;19912;-72
2021/03/29 10:24:27;;;;;;;;;;;40.90;1.00;;;;;;5074328;28;19946;-71
2021/03/29 10:26:53;;;;;;;;;;;39.20;1.00;;;;;;5088162;28;19934;-71
2021/03/29 10:29:36;;;;;;;;;;;37.30;1.00;;;;;;5076004;28;19917;-72
2021/03/29 10:32:04;;;;;;;;;;;31.60;1.00;;;;;;5046825;28;19912;-73
2021/03/29 10:34:30;;;;;;;;;;;32.50;1.00;;;;;;5058268;28;19912;-73
2021/03/29 10:36:55;;;;;;;;;;;32.50;1.00;;;;;;5067560;28;19923;-72
2021/03/29 10:39:21;;;;;;;;;;;33.30;1.00;;;;;;5062536;28;20377;-71
2021/03/29 10:41:46;;;;;;;;;;;33.30;1.00;;;;;;5067949;28;19913;-70
2021/03/29 10:44:12;;;;;;;;;;;34.60;1.00;;;;;;5067249;28;20419;-70
2021/03/29 10:46:37;;;;;;;;;;;30.70;1.00;;;;;;5067431;28;20229;-71
2021/03/29 10:49:03;;;;;;;;;;;30.00;1.00;;;;;;5067957;28;19908;-72
2021/03/29 10:51:28;;;;;;;;;;;29.90;1.00;;;;;;5063155;28;19927;-71
2021/03/29 10:53:54;;;;;;;;;;;28.90;1.00;;;;;;5067446;28;19909;-70
2021/03/29 10:56:19;;;;;;;;;;;30.00;1.00;;;;;;5067491;28;19928;-71
2021/03/29 10:58:45;;;;;;;;;;;31.30;1.00;;;;;;5068627;28;20318;-71
2021/03/29 11:01:10;;;;;;;;;;;31.70;1.00;;;;;;5069837;28;19909;-72
2021/03/29 11:03:36;;;;;;;;;;;30.60;1.00;;;;;;5072126;28;20404;-71
2021/03/29 11:06:01;;;;;;;;;;;29.80;1.00;;;;;;5072151;28;19916;-71
2021/03/29 11:08:27;;;;;;;;;;;29.50;1.00;;;;;;5072299;28;19919;-71
2021/03/29 11:10:52;;;;;;;;;;;30.00;1.00;;;;;;5070544;28;20334;-71
2021/03/29 11:13:18;;;;;;;;;;;30.20;1.00;;;;;;5072080;28;20034;-70
2021/03/29 11:15:43;;;;;;;;;;;29.60;1.00;;;;;;5070880;28;19919;-71
2021/03/29 11:18:10;;;;;;;;;;;30.00;1.00;;;;;;5072111;28;19912;-72
2021/03/29 11:20:36;;;;;;;;;;;30.60;1.00;;;;;;5069891;28;19912;-70
2021/03/29 11:23:01;;;;;;;;;;;31.10;1.00;;;;;;5053477;28;19913;-71
2021/03/29 11:25:27;;;;;;;;;;;31.50;1.00;;;;;;5067643;28;19916;-71
2021/03/29 11:27:53;;;;;;;;;;;31.90;1.00;;;;;;5071013;28;20418;-72
2021/03/29 11:30:18;;;;;;;;;;;32.20;1.00;;;;;;5070081;28;19918;-72
2021/03/29 11:32:44;;;;;;;;;;;32.50;1.00;;;;;;5070898;28;19916;-71
2021/03/29 11:35:10;;;;;;;;;;;32.40;1.00;;;;;;5070519;28;19916;-72
2021/03/29 11:37:35;;;;;;;;;;;32.40;1.00;;;;;;5071106;28;19909;-70
2021/03/29 11:40:01;;;;;;;;;;;31.90;1.00;;;;;;5070822;28;19909;-70
2021/03/29 11:42:26;;;;;;;;;;;31.00;1.00;;;;;;5070823;28;19909;-71
2021/03/29 11:44:52;;;;;;;;;;;30.40;1.00;;;;;;5070775;28;19921;-73
2021/03/29 11:47:18;;;;;;;;;;;30.20;1.00;;;;;;5070559;28;20457;-70
2021/03/29 11:49:43;;;;;;;;;;;29.60;1.00;;;;;;5069552;28;19919;-72
2021/03/29 11:52:09;;;;;;;;;;;29.80;1.00;;;;;;5069419;28;19908;-71
2021/03/29 11:54:34;;;;;;;;;;;30.10;1.00;;;;;;5069028;28;20365;-71
2021/03/29 11:57:00;;;;;;;;;;;30.20;1.00;;;;;;5068448;28;19909;-70
2021/03/29 11:59:26;;;;;;;;;;;30.20;1.00;;;;;;5068070;28;20525;-71
2021/03/29 12:02:00;;;;;;;;;;;30.40;1.00;;;;;;5069826;28;19948;-71
2021/03/29 12:04:40;;;;;;;;;;;30.40;1.00;;;;;;5070291;28;19916;-70
2021/03/29 12:07:10;;;;;;;;;;;29.50;1.00;;;;;;5070693;28;20014;-70
2021/03/29 12:09:48;;;;;;;;;;;28.40;1.00;;;;;;5069393;28;19933;-71
2021/03/29 12:12:14;;;;;;;;;;;28.20;1.00;;;;;;5070068;28;20288;-70
2021/03/29 12:14:40;;;;;;;;;;;28.40;1.00;;;;;;5069778;28;19912;-70
2021/03/29 12:17:07;;;;;;;;;;;28.20;1.00;;;;;;5070713;28;19909;-72
2021/03/29 12:19:35;;;;;;;;;;;28.00;1.00;;;;;;5070395;28;20023;-68
2021/03/29 12:22:02;;;;;;;;;;;28.10;1.00;;;;;;5071278;28;20004;-70
2021/03/29 12:24:30;;;;;;;;;;;28.00;1.00;;;;;;5070648;28;19936;-70
2021/03/29 12:26:59;;;;;;;;;;;27.40;1.00;;;;;;5070114;28;19935;-70
2021/03/29 12:29:37;;;;;;;;;;;27.50;1.00;;;;;;5069781;28;19995;-71
2021/03/29 12:32:04;;;;;;;;;;;27.50;1.00;;;;;;5070293;28;19970;-70
2021/03/29 12:34:29;;;;;;;;;;;27.40;1.00;;;;;;5070068;28;19949;-71
2021/03/29 12:36:56;;;;;;;;;;;27.00;1.00;;;;;;5070493;28;19977;-71
2021/03/29 12:39:30;;;;;;;;;;;27.20;1.00;;;;;;5047936;28;19928;-71
2021/03/29 12:41:58;;;;;;;;;;;27.20;1.00;;;;;;5069095;28;19950;-71
2021/03/29 12:44:25;;;;;;;;;;;27.20;1.00;;;;;;5068416;28;19921;-70
2021/03/29 12:46:54;;;;;;;;;;;27.30;1.00;;;;;;5067648;28;19913;-69
2021/03/29 12:49:21;;;;;;;;;;;27.40;1.00;;;;;;5067417;28;20680;-72
2021/03/29 12:51:51;;;;;;;;;;;27.50;1.00;;;;;;5070238;28;19950;-70
2021/03/29 12:54:21;;;;;;;;;;;27.40;1.00;;;;;;5070400;28;20330;-70
2021/03/29 12:56:47;;;;;;;;;;;27.30;1.00;;;;;;5069798;28;19909;-69
2021/03/29 12:59:12;;;;;;;;;;;27.00;1.00;;;;;;5069475;28;19916;-72
2021/03/29 13:01:39;;;;;;;;;;;26.90;1.00;;;;;;5069261;28;20273;-70
2021/03/29 13:04:15;;;;;;;;;;;26.70;1.00;;;;;;5070447;28;19923;-70
2021/03/29 13:06:52;;;;;;;;;;;26.10;1.00;;;;;;5068552;28;19947;-71
2021/03/29 13:12:08;;;;;;;;;;;26.00;1.00;;;;;;5049185;28;19995;-70
2021/03/29 13:14:57;;;;;;;;;;;25.80;1.00;;;;;;5069204;28;19912;-70
2021/03/29 13:17:23;;;;;;;;;;;25.50;1.00;;;;;;5060894;28;19962;-70
2021/03/29 13:19:49;;;;;;;;;;;25.30;1.00;;;;;;5067544;28;21438;-70
2021/03/29 13:22:15;;;;;;;;;;;25.00;1.00;;;;;;5069076;28;19909;-69
2021/03/29 13:24:41;;;;;;;;;;;24.70;1.00;;;;;;5068974;28;19913;-71
2021/03/29 13:27:06;;;;;;;;;;;24.20;1.00;;;;;;5069252;28;20063;-70
2021/03/29 13:29:32;;;;;;;;;;;24.00;1.00;;;;;;5068928;28;20020;-70
2021/03/29 13:31:58;;;;;;;;;;;23.70;1.00;;;;;;5050804;28;19923;-69
2021/03/29 13:34:23;;;;;;;;;;;23.40;1.00;;;;;;5068621;28;20321;-69
2021/03/29 13:36:49;;;;;;;;;;;23.10;1.00;;;;;;5068809;28;19954;-71
2021/03/29 13:39:14;;;;;;;;;;;22.80;1.00;;;;;;5068870;28;19913;-71
2021/03/29 13:41:40;;;;;;;;;;;22.60;1.00;;;;;;5050851;28;19909;-71
2021/03/29 13:44:06;;;;;;;;;;;22.50;1.00;;;;;;5069322;28;19993;-71
2021/03/29 13:46:31;;;;;;;;;;;22.30;1.00;;;;;;5065651;28;19923;-70
2021/03/29 13:48:58;;;;;;;;;;;22.10;1.00;;;;;;5063795;28;19939;-70
2021/03/29 13:51:24;;;;;;;;;;;21.90;1.00;;;;;;5068140;28;20003;-70
2021/03/29 13:53:55;;;;;;;;;;;21.70;1.00;;;;;;5068760;28;20407;-71
2021/03/29 13:56:20;;;;;;;;;;;21.50;1.00;;;;;;5068790;28;19988;-70
2021/03/29 13:58:46;;;;;;;;;;;21.40;1.00;;;;;;5068495;28;20056;-70
2021/03/29 14:01:13;;;;;;;;;;;21.20;1.00;;;;;;5069310;28;19916;-70
2021/03/29 14:03:39;;;;;;;;;;;20.90;1.00;;;;;;5069629;28;19970;-70
2021/03/29 14:06:04;;;;;;;;;;;20.80;1.00;;;;;;5048050;28;19993;-72
2021/03/29 14:08:29;;;;;;;;;;;20.50;1.00;;;;;;5063696;28;20254;-71
2021/03/29 14:10:55;;;;;;;;;;;20.50;1.00;;;;;;5067758;28;20300;-71
2021/03/29 14:13:20;;;;;;;;;;;20.60;1.00;;;;;;5068532;28;19913;-69
2021/03/29 14:15:48;;;;;;;;;;;20.70;1.00;;;;;;5066966;28;19912;-71
2021/03/29 14:18:14;;;;;;;;;;;20.80;1.00;;;;;;5065766;28;19913;-69
2021/03/29 14:20:39;;;;;;;;;;;21.00;1.00;;;;;;5067549;28;19958;-71
2021/03/29 14:23:05;;;;;;;;;;;21.00;1.00;;;;;;5069545;28;20633;-71
2021/03/29 14:25:31;;;;;;;;;;;21.00;1.00;;;;;;5069003;28;19912;-70
2021/03/29 14:27:56;;;;;;;;;;;20.90;1.00;;;;;;5068357;28;19950;-68
2021/03/29 14:30:22;;;;;;;;;;;21.00;1.00;;;;;;5068481;28;19909;-71
2021/03/29 14:32:48;;;;;;;;;;;21.00;1.00;;;;;;5070048;28;19949;-71
2021/03/29 14:35:36;;;;;;;;;;;21.10;1.00;;;;;;5072841;28;20388;-70
2021/03/29 14:45:39;;;;;;;;;;;21.30;1.00;;;;;;5072172;28;19917;-72
2021/03/29 14:48:05;;;;;;;;;;;21.20;1.00;;;;;;5080583;22;20272;-68